Portada
METAR-TAF:

METAR-TAF

Aeroports :

Imperatriz, Maranhão, Brasil

latitud: 05-32S, longitud: 047-30W, altitud: 123 m

Observació

L'informe es va fer fa 8 hores i 45 minuts, a les 20:00 UTC
Vent 5 kt del Est
Temperatura 35°C
Humitat 30%
Pressió 1012 hPa
Visibilitat 10 km o més
sense núvols per sota de 1500 mi sense presència de cumulonimbus.

METAR: SBIZ 082000Z 09005KT CAVOK 35/15 Q1012

Hora: 01:45 (04:45 UTC)

Pronòstic

L'informe es va fer fa 7 hores i 45 minuts, a les 21:00 UTC
Pronòstic vàlid del 09 a les 00 UTC al 09 a les 12 UTC
Vent 5 kt del Est/Sud-Est
Visibilitat 10 km o més
sense núvols per sota de 1500 mi sense presència de cumulonimbus.

TAF: SBIZ 082100Z 0900/0912 12005KT CAVOK TX30/0900Z TN25/0908Z RMK PCZ

Observacions i pronòstics meteorològics de més de 4000 aeroports (METAR i TAF).

Les estacions disponibles són els punts grocs i vermells al mapa.

Posi el ratolí al punt desitjat per veure el nom de l'estació.

Feu clic per veure les observacions i els pronòstics meteorològics.

Per canviar el mapa: feu clic els botons verds amb una creu de color negre per apropar; al botó verd amb un guió per allunyar la imatge; o en les fletxes verdes per a mapes adjacents.


METAR-TAF: